createdAt,value
2023-02-22T00:00:23.142Z,100874.56
2023-02-22T00:03:27.999Z,100870.78
2023-02-22T00:06:31.345Z,100865.84
2023-02-22T00:09:34.375Z,100868.00
2023-02-22T00:12:37.243Z,100867.78
2023-02-22T00:15:44.509Z,100869.44
2023-02-22T00:18:48.168Z,100867.47
2023-02-22T00:21:56.027Z,100871.22
2023-02-22T00:24:58.732Z,100868.94
2023-02-22T00:28:02.309Z,100863.88
2023-02-22T00:31:06.916Z,100867.13
2023-02-22T00:34:09.762Z,100866.28
2023-02-22T00:37:12.651Z,100873.03
2023-02-22T00:40:20.200Z,100869.22
2023-02-22T00:43:23.271Z,100868.66
2023-02-22T00:46:26.161Z,100879.09
2023-02-22T00:49:29.430Z,100874.25
2023-02-22T00:52:32.492Z,100859.56
2023-02-22T00:55:37.574Z,100875.19
2023-02-22T00:58:40.390Z,100875.38
2023-02-22T01:01:43.419Z,100876.47
2023-02-22T01:04:46.434Z,100874.94
2023-02-22T01:07:50.402Z,100871.06
2023-02-22T01:10:53.943Z,100859.59
2023-02-22T01:13:57.991Z,100865.91
2023-02-22T01:17:00.953Z,100864.00
2023-02-22T01:20:13.178Z,100866.03
2023-02-22T01:23:17.622Z,100859.34
2023-02-22T01:26:20.431Z,100858.09
2023-02-22T01:29:23.501Z,100866.38
2023-02-22T01:32:26.912Z,100868.19
2023-02-22T01:35:33.061Z,100878.50
2023-02-22T01:38:36.183Z,100875.06
2023-02-22T01:41:39.358Z,100870.78
2023-02-22T01:44:43.864Z,100872.31
2023-02-22T01:47:46.687Z,100865.84
2023-02-22T01:51:11.176Z,100871.09
2023-02-22T01:54:21.721Z,100882.09
2023-02-22T01:57:32.433Z,100875.28
2023-02-22T02:00:40.275Z,100873.88
2023-02-22T02:03:43.956Z,100865.84
2023-02-22T02:06:48.326Z,100864.56
2023-02-22T02:09:51.269Z,100867.56
2023-02-22T02:12:55.505Z,100864.50
2023-02-22T02:15:58.403Z,100857.88
2023-02-22T02:19:01.605Z,100854.63
2023-02-22T02:22:25.571Z,100850.84
2023-02-22T02:25:31.444Z,100855.19
2023-02-22T02:28:44.920Z,100845.66
2023-02-22T02:32:06.051Z,100848.22
2023-02-22T02:35:24.542Z,100843.84
2023-02-22T02:38:39.553Z,100842.16
2023-02-22T02:41:49.009Z,100846.88
2023-02-22T02:45:02.980Z,100855.53
2023-02-22T02:48:10.741Z,100853.88
2023-02-22T02:51:16.255Z,100858.00
2023-02-22T02:54:21.190Z,100850.22
2023-02-22T02:57:25.070Z,100853.91
2023-02-22T03:00:39.500Z,100847.53
2023-02-22T03:03:55.329Z,100857.09
2023-02-22T03:07:12.196Z,100852.25
2023-02-22T03:10:33.588Z,100847.97
2023-02-22T03:14:07.882Z,100852.25
2023-02-22T03:17:41.693Z,100848.88
2023-02-22T03:20:59.764Z,100844.53
2023-02-22T03:24:26.570Z,100849.25
2023-02-22T03:27:43.836Z,100850.34
2023-02-22T03:30:54.966Z,100848.88
2023-02-22T03:34:02.702Z,100847.22
2023-02-22T03:37:22.129Z,100842.47
2023-02-22T03:40:33.497Z,100858.97
2023-02-22T03:43:42.034Z,100848.06
2023-02-22T03:46:53.748Z,100847.47
2023-02-22T03:50:07.894Z,100853.63
2023-02-22T03:53:15.288Z,100842.25
2023-02-22T03:56:24.307Z,100845.91
2023-02-22T03:59:28.423Z,100858.41
2023-02-22T04:02:31.155Z,100864.25
2023-02-22T04:05:34.229Z,100870.81
2023-02-22T04:08:38.101Z,100862.97
2023-02-22T04:11:40.962Z,100864.63
2023-02-22T04:14:44.111Z,100867.09
2023-02-22T04:17:47.315Z,100868.75
2023-02-22T04:20:52.819Z,100862.59
2023-02-22T04:24:05.375Z,100871.56
2023-02-22T04:27:08.410Z,100864.19
2023-02-22T04:30:13.828Z,100868.31
2023-02-22T04:33:18.858Z,100873.00
2023-02-22T04:36:22.385Z,100871.09
2023-02-22T04:39:26.287Z,100869.25
2023-02-22T04:42:29.849Z,100869.75
2023-02-22T04:45:32.714Z,100867.97
2023-02-22T04:48:36.188Z,100872.19
2023-02-22T04:51:39.215Z,100864.56
2023-02-22T04:54:44.383Z,100867.44
2023-02-22T04:57:47.696Z,100869.06
2023-02-22T05:00:53.098Z,100874.16
2023-02-22T05:03:56.418Z,100876.09
2023-02-22T05:06:59.287Z,100874.75
2023-02-22T05:10:02.912Z,100872.81
2023-02-22T05:13:09.414Z,100878.88
2023-02-22T05:16:12.550Z,100871.56
2023-02-22T05:19:15.785Z,100873.75
2023-02-22T05:22:18.688Z,100875.47
2023-02-22T05:25:21.852Z,100872.81
2023-02-22T05:28:24.806Z,100870.38
2023-02-22T05:31:27.747Z,100872.44
2023-02-22T05:34:31.081Z,100868.59
2023-02-22T05:37:34.143Z,100881.38
2023-02-22T05:40:43.060Z,100883.69
2023-02-22T05:43:46.323Z,100886.84
2023-02-22T05:46:49.706Z,100887.25
2023-02-22T05:49:52.793Z,100893.72
2023-02-22T05:52:56.072Z,100897.09
2023-02-22T05:55:59.089Z,100898.03
2023-02-22T05:59:02.020Z,100899.22
2023-02-22T06:02:05.094Z,100905.28
2023-02-22T06:05:08.554Z,100908.28
2023-02-22T06:08:12.081Z,100904.78
2023-02-22T06:11:15.374Z,100905.16
2023-02-22T06:14:18.422Z,100911.44
2023-02-22T06:17:21.267Z,100916.47
2023-02-22T06:20:26.801Z,100916.00
2023-02-22T06:23:29.731Z,100920.91
2023-02-22T06:26:32.482Z,100920.47
2023-02-22T06:29:35.541Z,100927.38
2023-02-22T06:32:38.460Z,100923.31
2023-02-22T06:35:41.440Z,100929.84
2023-02-22T06:38:44.676Z,100934.38
2023-02-22T06:41:48.081Z,100942.31
2023-02-22T06:44:51.856Z,100936.41
2023-02-22T06:47:55.760Z,100934.59
2023-02-22T06:50:58.733Z,100936.50
2023-02-22T06:54:01.666Z,100949.53
2023-02-22T06:57:05.177Z,100947.13
2023-02-22T07:00:09.124Z,100955.94
2023-02-22T07:03:12.181Z,100949.59
2023-02-22T07:06:16.410Z,100946.28
2023-02-22T07:09:19.593Z,100949.84
2023-02-22T07:12:22.708Z,100940.69
2023-02-22T07:15:30.256Z,100945.56
2023-02-22T07:18:33.230Z,100939.22
2023-02-22T07:21:36.375Z,100943.75
2023-02-22T07:24:40.932Z,100940.56
2023-02-22T07:27:44.035Z,100934.53
2023-02-22T07:30:46.942Z,100937.06
2023-02-22T07:33:49.904Z,100930.69
2023-02-22T07:36:52.887Z,100927.19
2023-02-22T07:39:55.937Z,100935.91
2023-02-22T07:43:18.942Z,100932.16
2023-02-22T07:46:23.490Z,100930.75
2023-02-22T07:49:26.630Z,100924.72
2023-02-22T07:52:29.703Z,100922.09
2023-02-22T07:55:34.414Z,100915.97
2023-02-22T07:58:37.473Z,100915.69
2023-02-22T08:01:41.102Z,100907.97
2023-02-22T08:04:44.099Z,100909.03
2023-02-22T08:07:49.074Z,100910.09
2023-02-22T08:10:56.519Z,100899.94
2023-02-22T08:13:59.976Z,100908.72
2023-02-22T08:17:07.090Z,100898.66
2023-02-22T08:20:12.073Z,100893.47
2023-02-22T08:23:16.767Z,100897.47
2023-02-22T08:26:21.001Z,100895.09
2023-02-22T08:29:24.154Z,100898.38
2023-02-22T08:32:27.299Z,100885.00
2023-02-22T08:35:33.573Z,100889.00
2023-02-22T08:38:44.339Z,100877.28
2023-02-22T08:41:47.525Z,100880.25
2023-02-22T08:44:50.373Z,100878.34
2023-02-22T08:47:53.211Z,100884.56
2023-02-22T08:50:56.438Z,100870.66
2023-02-22T08:53:59.252Z,100872.78
2023-02-22T08:57:02.838Z,100876.00
2023-02-22T09:00:08.916Z,100885.91
2023-02-22T09:03:15.282Z,100882.09
2023-02-22T09:06:19.105Z,100877.75
2023-02-22T09:09:24.120Z,100874.50
2023-02-22T09:12:27.398Z,100875.31
2023-02-22T09:15:32.251Z,100871.38
2023-02-22T09:20:05.656Z,100870.13
2023-02-22T09:23:11.314Z,100860.66
2023-02-22T09:26:16.287Z,100861.84
2023-02-22T09:29:25.472Z,100861.13
2023-02-22T09:32:28.968Z,100858.91
2023-02-22T09:41:38.906Z,100856.81
2023-02-22T09:45:06.438Z,100846.34
2023-02-22T09:48:21.986Z,100859.75
2023-02-22T09:51:53.980Z,100851.03
2023-02-22T09:55:29.123Z,100843.38
2023-02-22T09:58:41.751Z,100841.56
2023-02-22T10:01:51.414Z,100839.81
2023-02-22T10:05:05.885Z,100839.38
2023-02-22T10:08:20.287Z,100838.91
2023-02-22T10:11:32.230Z,100835.69
2023-02-22T10:15:12.575Z,100826.88
2023-02-22T10:18:40.202Z,100831.00
2023-02-22T10:22:01.025Z,100833.72
2023-02-22T10:25:18.327Z,100813.72
2023-02-22T10:28:35.129Z,100817.81
2023-02-22T10:31:45.044Z,100815.81
2023-02-22T10:34:51.809Z,100806.72
2023-02-22T10:38:15.139Z,100811.53
2023-02-22T10:41:36.355Z,100802.63
2023-02-22T10:44:40.918Z,100801.31
2023-02-22T10:47:44.180Z,100795.75
2023-02-22T10:50:51.786Z,100790.41
2023-02-22T10:54:10.161Z,100784.00
2023-02-22T10:57:14.136Z,100786.59
2023-02-22T11:00:20.502Z,100782.47
2023-02-22T11:03:24.503Z,100775.25
2023-02-22T11:06:28.332Z,100769.66
2023-02-22T11:09:31.258Z,100767.66
2023-02-22T11:12:38.833Z,100762.78
2023-02-22T11:15:41.727Z,100760.13
2023-02-22T11:18:52.492Z,100760.66
2023-02-22T11:22:15.279Z,100748.13
2023-02-22T11:25:22.673Z,100743.09
2023-02-22T11:28:31.291Z,100750.75
2023-02-22T11:31:43.751Z,100751.84
2023-02-22T11:34:48.269Z,100739.75
2023-02-22T11:37:51.120Z,100744.38
2023-02-22T11:41:28.527Z,100744.22
2023-02-22T11:44:35.230Z,100738.47
2023-02-22T11:47:59.278Z,100735.44
2023-02-22T11:51:14.997Z,100725.44
2023-02-22T11:54:31.656Z,100729.72
2023-02-22T11:58:23.238Z,100723.81
2023-02-22T12:01:35.277Z,100724.13
2023-02-22T12:04:54.584Z,100710.22
2023-02-22T12:08:30.054Z,100709.50
2023-02-22T12:11:44.709Z,100707.06
2023-02-22T12:14:55.333Z,100714.03
2023-02-22T12:18:14.384Z,100706.69
2023-02-22T12:21:20.953Z,100703.97
2023-02-22T12:24:38.503Z,100696.78
2023-02-22T12:27:52.125Z,100692.97
2023-02-22T12:31:13.839Z,100689.16
2023-02-22T12:34:22.101Z,100678.59
2023-02-22T12:37:29.137Z,100676.28
2023-02-22T12:40:47.714Z,100673.63
2023-02-22T12:44:05.339Z,100669.88
2023-02-22T12:47:16.324Z,100672.75
2023-02-22T12:50:23.612Z,100670.34
2023-02-22T12:53:34.843Z,100658.59
2023-02-22T12:56:49.334Z,100662.19
2023-02-22T13:00:05.940Z,100653.97
2023-02-22T13:03:33.245Z,100653.13
2023-02-22T13:06:45.397Z,100663.03
2023-02-22T13:09:53.950Z,100665.03
2023-02-22T13:13:04.909Z,100661.56
2023-02-22T13:16:16.201Z,100662.50
2023-02-22T13:19:28.674Z,100666.09
2023-02-22T13:22:56.131Z,100663.88
2023-02-22T13:26:08.369Z,100658.13
2023-02-22T13:29:39.617Z,100663.28
2023-02-22T13:33:08.288Z,100651.63
2023-02-22T13:36:35.921Z,100649.72
2023-02-22T13:39:48.454Z,100657.16
2023-02-22T13:42:59.023Z,100652.34
2023-02-22T13:46:12.803Z,100662.97
2023-02-22T13:49:33.295Z,100660.50
2023-02-22T13:52:41.194Z,100665.88
2023-02-22T13:55:49.736Z,100660.78
2023-02-22T13:58:57.221Z,100660.31
2023-02-22T14:02:05.517Z,100646.06
2023-02-22T14:05:45.194Z,100650.41
2023-02-22T14:08:48.103Z,100649.84
2023-02-22T14:11:57.057Z,100647.59
2023-02-22T14:15:28.617Z,100654.34
2023-02-22T14:18:40.850Z,100650.59
2023-02-22T14:22:06.134Z,100653.00
2023-02-22T14:25:33.798Z,100657.09
2023-02-22T14:28:59.976Z,100651.50
2023-02-22T14:32:10.913Z,100645.41
2023-02-22T14:35:44.619Z,100645.75
2023-02-22T14:38:39.546Z,100648.03
2023-02-22T14:41:49.822Z,100649.84
2023-02-22T14:45:10.469Z,100642.72
2023-02-22T14:48:14.622Z,100640.31
2023-02-22T14:51:29.208Z,100645.25
2023-02-22T14:54:42.307Z,100636.63
2023-02-22T14:58:10.230Z,100647.59
2023-02-22T15:01:20.414Z,100640.13
2023-02-22T15:04:27.263Z,100643.19
2023-02-22T15:07:32.270Z,100644.72
2023-02-22T15:10:43.065Z,100651.16
2023-02-22T15:13:51.962Z,100640.75
2023-02-22T15:16:58.170Z,100651.91
2023-02-22T15:20:01.199Z,100637.31
2023-02-22T15:23:04.974Z,100637.94
2023-02-22T15:26:16.223Z,100644.16
2023-02-22T15:29:25.557Z,100639.41
2023-02-22T15:32:40.203Z,100636.50
2023-02-22T15:35:46.057Z,100635.50
2023-02-22T15:38:51.472Z,100635.53
2023-02-22T15:42:04.628Z,100638.09
2023-02-22T15:45:07.692Z,100632.78
2023-02-22T15:48:11.403Z,100634.75
2023-02-22T15:51:16.092Z,100622.94
2023-02-22T15:54:26.844Z,100628.16
2023-02-22T15:57:30.707Z,100631.28
2023-02-22T16:00:36.733Z,100631.16
2023-02-22T16:03:56.103Z,100626.72
2023-02-22T16:07:17.335Z,100631.66
2023-02-22T16:10:33.562Z,100627.81
2023-02-22T16:13:36.732Z,100633.19
2023-02-22T16:16:41.891Z,100629.31
2023-02-22T16:19:50.669Z,100631.59
2023-02-22T16:22:57.850Z,100623.81
2023-02-22T16:26:31.518Z,100628.78
2023-02-22T16:29:34.446Z,100625.22
2023-02-22T16:32:37.552Z,100624.75
2023-02-22T16:35:41.281Z,100632.88
2023-02-22T16:38:48.382Z,100649.06
2023-02-22T16:41:52.089Z,100641.59
2023-02-22T16:44:55.037Z,100649.84
2023-02-22T16:48:00.120Z,100654.41
2023-02-22T16:51:10.883Z,100647.38
2023-02-22T16:54:19.464Z,100653.72
2023-02-22T16:57:26.881Z,100651.78
2023-02-22T17:00:32.745Z,100651.22
2023-02-22T17:03:36.057Z,100657.63
2023-02-22T17:06:39.625Z,100657.06
2023-02-22T17:09:42.589Z,100662.22
2023-02-22T17:12:48.608Z,100665.38
2023-02-22T17:15:51.945Z,100667.84
2023-02-22T17:18:54.845Z,100662.72
2023-02-22T17:21:58.087Z,100665.66
2023-02-22T17:25:00.974Z,100661.19
2023-02-22T17:28:05.326Z,100661.22
2023-02-22T17:31:08.541Z,100667.78
2023-02-22T17:34:11.715Z,100666.00
2023-02-22T17:37:14.764Z,100666.00
2023-02-22T17:40:18.304Z,100666.06
2023-02-22T17:43:22.032Z,100656.50
2023-02-22T17:46:25.794Z,100664.28
2023-02-22T17:49:28.840Z,100664.91
2023-02-22T17:52:32.390Z,100658.56
2023-02-22T17:55:37.883Z,100663.69
2023-02-22T17:58:41.565Z,100655.97
2023-02-22T18:01:44.947Z,100659.84
2023-02-22T18:04:47.891Z,100660.28
2023-02-22T18:07:50.731Z,100648.88
2023-02-22T18:10:56.666Z,100652.34
2023-02-22T18:13:59.968Z,100660.53
2023-02-22T18:17:03.324Z,100657.25
2023-02-22T18:20:11.792Z,100661.75
2023-02-22T18:23:19.993Z,100664.78
2023-02-22T18:26:24.626Z,100660.88
2023-02-22T18:29:29.098Z,100656.41
2023-02-22T18:32:32.568Z,100656.19
2023-02-22T18:35:35.359Z,100649.63
2023-02-22T18:38:43.231Z,100654.53
2023-02-22T18:41:48.948Z,100654.28
2023-02-22T18:44:52.327Z,100656.94
2023-02-22T18:47:55.371Z,100661.00
2023-02-22T18:51:03.136Z,100664.16
2023-02-22T18:54:06.301Z,100670.47
2023-02-22T18:57:12.559Z,100663.31
2023-02-22T19:00:19.673Z,100672.47
2023-02-22T19:03:23.727Z,100679.13
2023-02-22T19:06:26.998Z,100674.78
2023-02-22T19:09:30.521Z,100668.38
2023-02-22T19:12:33.958Z,100674.78
2023-02-22T19:15:38.494Z,100667.09
2023-02-22T19:18:44.378Z,100669.47
2023-02-22T19:21:49.275Z,100672.47
2023-02-22T19:24:55.017Z,100676.41
2023-02-22T19:27:57.874Z,100671.66
2023-02-22T19:31:15.777Z,100673.03
2023-02-22T19:34:21.982Z,100674.28
2023-02-22T19:37:27.894Z,100673.91
2023-02-22T19:40:30.950Z,100677.38
2023-02-22T19:43:34.840Z,100676.50
2023-02-22T19:46:39.125Z,100687.75
2023-02-22T19:49:42.254Z,100683.88
2023-02-22T19:52:46.368Z,100677.06
2023-02-22T19:55:51.216Z,100685.16
2023-02-22T19:58:56.507Z,100686.59
2023-02-22T20:01:59.283Z,100687.59
2023-02-22T20:05:02.810Z,100688.31
2023-02-22T20:08:06.419Z,100687.31
2023-02-22T20:11:10.809Z,100686.19
2023-02-22T20:14:18.562Z,100682.28
2023-02-22T20:17:21.439Z,100679.97
2023-02-22T20:20:25.874Z,100682.28
2023-02-22T20:23:28.903Z,100687.03
2023-02-22T20:26:36.351Z,100691.63
2023-02-22T20:29:39.663Z,100698.44
2023-02-22T20:32:42.836Z,100697.47
2023-02-22T20:35:47.879Z,100701.84
2023-02-22T20:38:59.261Z,100697.03
2023-02-22T20:42:04.939Z,100701.84
2023-02-22T20:45:09.760Z,100698.34
2023-02-22T20:48:14.077Z,100691.34
2023-02-22T20:51:17.342Z,100692.81
2023-02-22T20:54:20.854Z,100694.63
2023-02-22T20:57:24.004Z,100700.66
2023-02-22T21:00:27.078Z,100698.03
2023-02-22T21:03:33.136Z,100700.69
2023-02-22T21:06:37.307Z,100700.22
2023-02-22T21:09:41.776Z,100703.88
2023-02-22T21:12:48.069Z,100701.22
2023-02-22T21:15:52.873Z,100708.84
2023-02-22T21:19:00.276Z,100703.97
2023-02-22T21:22:08.507Z,100695.13
2023-02-22T21:25:13.665Z,100697.66
2023-02-22T21:28:16.809Z,100701.22
2023-02-22T21:31:22.763Z,100693.03
2023-02-22T21:34:26.785Z,100696.66
2023-02-22T21:37:29.659Z,100692.97
2023-02-22T21:40:35.069Z,100695.84
2023-02-22T21:43:40.275Z,100694.56
2023-02-22T21:46:43.476Z,100696.91
2023-02-22T21:49:46.190Z,100693.88
2023-02-22T21:52:49.591Z,100701.88
2023-02-22T21:55:53.800Z,100700.94
2023-02-22T21:59:00.045Z,100699.78
2023-02-22T22:02:03.075Z,100696.69
2023-02-22T22:05:06.298Z,100703.09
2023-02-22T22:08:11.751Z,100703.66
2023-02-22T22:11:17.937Z,100698.72
2023-02-22T22:14:23.851Z,100699.97
2023-02-22T22:17:27.185Z,100697.38
2023-02-22T22:20:30.032Z,100696.03
2023-02-22T22:23:33.433Z,100694.38
2023-02-22T22:26:37.804Z,100698.78
2023-02-22T22:29:41.204Z,100699.25
2023-02-22T22:32:45.473Z,100708.72
2023-02-22T22:35:48.310Z,100714.91
2023-02-22T22:38:52.840Z,100718.06
2023-02-22T22:41:55.840Z,100718.53
2023-02-22T22:44:58.646Z,100715.38
2023-02-22T22:48:02.438Z,100722.28
2023-02-22T22:51:10.112Z,100726.94
2023-02-22T22:54:13.800Z,100719.88
2023-02-22T22:57:16.616Z,100724.16
2023-02-22T23:00:37.677Z,100724.16
2023-02-22T23:03:41.317Z,100721.06
2023-02-22T23:06:50.761Z,100716.31
2023-02-22T23:09:53.588Z,100723.91
2023-02-22T23:12:56.703Z,100724.41
2023-02-22T23:15:59.472Z,100722.66
2023-02-22T23:19:02.343Z,100727.56
2023-02-22T23:22:07.372Z,100726.81
2023-02-22T23:25:10.209Z,100724.56
2023-02-22T23:28:14.984Z,100730.47
2023-02-22T23:31:18.326Z,100724.69
2023-02-22T23:34:23.303Z,100722.09
2023-02-22T23:37:26.167Z,100724.09
2023-02-22T23:40:29.264Z,100717.91
2023-02-22T23:43:32.804Z,100717.06
2023-02-22T23:46:36.773Z,100714.63
2023-02-22T23:49:43.512Z,100715.34
2023-02-22T23:52:46.477Z,100717.50
2023-02-22T23:55:49.300Z,100714.06
2023-02-22T23:58:52.852Z,100716.22
